createdAt,value
2017-08-20T00:00:24.231Z,0
2017-08-20T00:00:56.541Z,0
2017-08-20T00:01:28.838Z,0
2017-08-20T00:02:01.141Z,0
2017-08-20T00:02:33.434Z,0
2017-08-20T00:03:05.723Z,0
2017-08-20T00:03:38.012Z,0
2017-08-20T00:04:10.315Z,0
2017-08-20T00:04:42.616Z,0
2017-08-20T00:05:14.920Z,0
2017-08-20T00:05:47.218Z,0
2017-08-20T00:06:19.500Z,0
2017-08-20T00:06:51.807Z,0
2017-08-20T00:07:24.120Z,0
2017-08-20T00:07:56.430Z,0
2017-08-20T00:08:28.719Z,0
2017-08-20T00:09:01.007Z,0
2017-08-20T00:09:33.321Z,0
2017-08-20T00:10:05.653Z,0
2017-08-20T00:10:37.968Z,0
2017-08-20T00:11:10.267Z,0
2017-08-20T00:11:42.563Z,0
2017-08-20T00:12:14.864Z,0
2017-08-20T00:12:47.150Z,0
2017-08-20T00:13:19.452Z,0
2017-08-20T00:13:51.759Z,0
2017-08-20T00:14:24.067Z,0
2017-08-20T00:14:56.389Z,0
2017-08-20T00:15:28.698Z,0
2017-08-20T00:16:01.006Z,0
2017-08-20T00:16:33.293Z,0
2017-08-20T00:17:05.562Z,0
2017-08-20T00:17:37.871Z,0
2017-08-20T00:18:10.174Z,0
2017-08-20T00:18:42.482Z,0
2017-08-20T00:19:14.790Z,0
2017-08-20T00:19:47.093Z,0
2017-08-20T00:20:19.400Z,0
2017-08-20T00:20:51.697Z,0
2017-08-20T00:21:23.991Z,0
2017-08-20T00:21:56.270Z,0
2017-08-20T00:22:28.589Z,0
2017-08-20T00:23:00.892Z,0
2017-08-20T00:23:33.167Z,0
2017-08-20T00:24:05.421Z,0
2017-08-20T00:24:37.694Z,0
2017-08-20T00:25:10.123Z,0
2017-08-20T00:25:42.387Z,0
2017-08-20T00:26:14.647Z,0
2017-08-20T00:26:46.925Z,0
2017-08-20T00:27:19.180Z,0
2017-08-20T00:27:51.469Z,0
2017-08-20T00:28:23.748Z,0
2017-08-20T00:28:56.004Z,0
2017-08-20T00:29:28.242Z,0
2017-08-20T00:30:00.513Z,0
2017-08-20T00:30:33.581Z,0
2017-08-20T00:31:05.842Z,0
2017-08-20T00:31:38.158Z,0
2017-08-20T00:32:10.428Z,0
2017-08-20T00:32:42.721Z,0
2017-08-20T00:33:14.994Z,0
2017-08-20T00:33:47.264Z,0
2017-08-20T00:34:19.515Z,0
2017-08-20T00:34:51.882Z,0
2017-08-20T00:35:24.135Z,0
2017-08-20T00:35:56.400Z,0
2017-08-20T00:36:28.650Z,0
2017-08-20T00:37:00.933Z,0
2017-08-20T00:37:33.180Z,0
2017-08-20T00:38:05.440Z,0
2017-08-20T00:38:37.711Z,0
2017-08-20T00:39:09.983Z,0
2017-08-20T00:39:42.260Z,0
2017-08-20T00:40:14.625Z,0
2017-08-20T00:40:46.895Z,0
2017-08-20T00:41:19.151Z,0
2017-08-20T00:41:51.412Z,0
2017-08-20T00:42:23.666Z,0
2017-08-20T00:42:55.959Z,0
2017-08-20T00:43:28.234Z,0
2017-08-20T00:44:00.521Z,0
2017-08-20T00:44:32.827Z,0
2017-08-20T00:45:05.178Z,0
2017-08-20T00:45:37.465Z,0
2017-08-20T00:46:09.759Z,0
2017-08-20T00:46:42.077Z,0
2017-08-20T00:47:14.392Z,0
2017-08-20T00:47:46.696Z,0
2017-08-20T00:48:18.989Z,0
2017-08-20T00:48:51.282Z,0
2017-08-20T00:49:23.583Z,0
2017-08-20T00:49:55.882Z,0
2017-08-20T00:50:28.187Z,0
2017-08-20T00:51:00.494Z,0
2017-08-20T00:51:32.797Z,0
2017-08-20T00:52:05.079Z,0
2017-08-20T00:52:37.380Z,0
2017-08-20T00:53:09.640Z,0
2017-08-20T00:53:41.893Z,0
2017-08-20T00:54:14.140Z,0
2017-08-20T00:54:46.429Z,0
2017-08-20T00:55:18.710Z,0
2017-08-20T00:55:51.002Z,0
2017-08-20T00:56:23.252Z,0
2017-08-20T00:56:55.523Z,0
2017-08-20T00:57:27.797Z,0
2017-08-20T00:58:00.055Z,0
2017-08-20T00:58:32.393Z,0
2017-08-20T00:59:04.665Z,0
2017-08-20T00:59:36.921Z,0
2017-08-20T01:00:09.199Z,0
2017-08-20T01:00:41.477Z,0
2017-08-20T01:01:13.731Z,0
2017-08-20T01:01:46.008Z,0
2017-08-20T01:02:18.252Z,0
2017-08-20T01:02:50.531Z,0
2017-08-20T01:03:22.832Z,0
2017-08-20T01:03:55.134Z,0
2017-08-20T01:04:27.411Z,0
2017-08-20T01:04:59.697Z,0
2017-08-20T01:05:31.991Z,0
2017-08-20T01:06:04.292Z,0
2017-08-20T01:06:36.577Z,0
2017-08-20T01:07:08.848Z,0
2017-08-20T01:07:41.131Z,0
2017-08-20T01:08:13.426Z,0
2017-08-20T01:08:45.711Z,0
2017-08-20T01:09:18.003Z,0
2017-08-20T01:09:50.293Z,0
2017-08-20T01:10:22.599Z,0
2017-08-20T01:10:54.895Z,0
2017-08-20T01:11:27.184Z,0
2017-08-20T01:11:59.486Z,0
2017-08-20T01:12:31.781Z,0
2017-08-20T01:13:04.066Z,0
2017-08-20T01:13:36.388Z,0
2017-08-20T01:14:08.676Z,0
2017-08-20T01:14:40.950Z,0
2017-08-20T01:15:13.216Z,0
2017-08-20T01:15:45.468Z,0
2017-08-20T01:16:17.740Z,0
2017-08-20T01:16:50.008Z,0
2017-08-20T01:17:22.280Z,0
2017-08-20T01:17:54.558Z,0
2017-08-20T01:18:26.812Z,0
2017-08-20T01:18:59.069Z,0
2017-08-20T01:19:31.340Z,0
2017-08-20T01:20:03.603Z,0
2017-08-20T01:20:35.876Z,0
2017-08-20T01:21:08.122Z,0
2017-08-20T01:21:40.372Z,0
2017-08-20T01:22:12.640Z,0
2017-08-20T01:22:44.893Z,0
2017-08-20T01:23:17.746Z,0
2017-08-20T01:23:50.023Z,0
2017-08-20T01:24:22.305Z,0
2017-08-20T01:24:54.552Z,0
2017-08-20T01:25:26.846Z,0
2017-08-20T01:25:59.120Z,0
2017-08-20T01:26:31.392Z,0
2017-08-20T01:27:03.655Z,0
2017-08-20T01:27:35.929Z,0
2017-08-20T01:28:08.207Z,0
2017-08-20T01:28:40.501Z,0
2017-08-20T01:29:12.782Z,0
2017-08-20T01:29:45.061Z,0
2017-08-20T01:30:17.315Z,0
2017-08-20T01:30:49.588Z,0
2017-08-20T01:31:21.854Z,0
2017-08-20T01:31:54.117Z,0
2017-08-20T01:32:26.414Z,0
2017-08-20T01:32:58.672Z,0
2017-08-20T01:33:30.958Z,0
2017-08-20T01:34:03.359Z,0
2017-08-20T01:34:35.698Z,0
2017-08-20T01:35:07.948Z,0
2017-08-20T01:35:40.203Z,0
2017-08-20T01:36:12.595Z,0
2017-08-20T01:36:44.868Z,0
2017-08-20T01:37:17.160Z,0
2017-08-20T01:37:49.423Z,0
2017-08-20T01:38:21.673Z,0
2017-08-20T01:38:54.095Z,0
2017-08-20T01:39:26.355Z,0
2017-08-20T01:39:58.600Z,0
2017-08-20T01:40:30.856Z,0
2017-08-20T01:41:03.229Z,0
2017-08-20T01:41:35.537Z,0
2017-08-20T01:42:07.790Z,0
2017-08-20T01:42:40.052Z,0
2017-08-20T01:43:12.332Z,0
2017-08-20T01:43:44.617Z,0
2017-08-20T01:44:16.903Z,0
2017-08-20T01:44:49.195Z,0
2017-08-20T01:45:21.486Z,0
2017-08-20T01:45:53.783Z,0
2017-08-20T01:46:26.091Z,0
2017-08-20T01:46:58.380Z,0
2017-08-20T01:47:30.687Z,0
2017-08-20T01:48:03.006Z,0
2017-08-20T01:48:35.298Z,0
2017-08-20T01:49:07.589Z,0
2017-08-20T01:49:39.881Z,0
2017-08-20T01:50:12.167Z,0
2017-08-20T01:50:44.459Z,0
2017-08-20T01:51:16.768Z,0
2017-08-20T01:51:49.080Z,0
2017-08-20T01:52:21.405Z,0
2017-08-20T01:52:53.710Z,0
2017-08-20T01:53:26.005Z,0
2017-08-20T01:53:58.303Z,0
2017-08-20T01:54:30.606Z,0
2017-08-20T01:55:02.908Z,0
2017-08-20T01:55:35.194Z,0
2017-08-20T01:56:07.490Z,0
2017-08-20T01:56:39.800Z,0
2017-08-20T01:57:12.106Z,0
2017-08-20T01:57:44.418Z,0
2017-08-20T01:58:16.716Z,0
2017-08-20T01:58:49.016Z,0
2017-08-20T01:59:21.297Z,0
2017-08-20T01:59:53.585Z,0
2017-08-20T02:00:25.872Z,0
2017-08-20T02:00:58.167Z,0
2017-08-20T02:01:30.457Z,0
2017-08-20T02:02:02.768Z,0
2017-08-20T02:02:35.044Z,0
2017-08-20T02:03:07.338Z,0
2017-08-20T02:03:39.613Z,0
2017-08-20T02:04:11.917Z,0
2017-08-20T02:04:44.210Z,0
2017-08-20T02:05:16.509Z,0
2017-08-20T02:05:48.808Z,0
2017-08-20T02:06:21.111Z,0
2017-08-20T02:06:53.406Z,0
2017-08-20T02:07:25.706Z,0
2017-08-20T02:07:57.996Z,0
2017-08-20T02:08:30.281Z,0
2017-08-20T02:09:02.574Z,0
2017-08-20T02:09:34.856Z,0
2017-08-20T02:10:07.198Z,0
2017-08-20T02:10:39.498Z,0
2017-08-20T02:11:11.800Z,0
2017-08-20T02:11:44.112Z,0
2017-08-20T02:12:16.420Z,0
2017-08-20T02:12:48.715Z,0
2017-08-20T02:13:20.982Z,0
2017-08-20T02:13:53.227Z,0
2017-08-20T02:14:25.577Z,0
2017-08-20T02:14:57.845Z,0
2017-08-20T02:15:30.100Z,0
2017-08-20T02:16:02.341Z,0
2017-08-20T02:16:34.608Z,0
2017-08-20T02:17:06.876Z,0
2017-08-20T02:17:39.125Z,0
2017-08-20T02:18:11.379Z,0
2017-08-20T02:18:43.666Z,0
2017-08-20T02:19:15.906Z,0
2017-08-20T02:19:48.165Z,0
2017-08-20T02:20:20.463Z,0
2017-08-20T02:20:52.720Z,0
2017-08-20T02:21:24.991Z,0
2017-08-20T02:21:57.241Z,0
2017-08-20T02:22:29.498Z,0
2017-08-20T02:23:01.757Z,0
2017-08-20T02:23:34.018Z,0
2017-08-20T02:24:06.367Z,0
2017-08-20T02:24:38.643Z,0
2017-08-20T02:25:10.907Z,0
2017-08-20T02:25:43.172Z,0
2017-08-20T02:26:15.432Z,0
2017-08-20T02:26:47.755Z,0
2017-08-20T02:27:20.016Z,0
2017-08-20T02:27:52.294Z,0
2017-08-20T02:28:24.596Z,0
2017-08-20T02:28:56.880Z,0
2017-08-20T02:29:29.129Z,0
2017-08-20T02:30:01.390Z,0
2017-08-20T02:30:33.660Z,0
2017-08-20T02:31:05.910Z,0
2017-08-20T02:31:38.177Z,0
2017-08-20T02:32:10.462Z,0
2017-08-20T02:32:42.733Z,0
2017-08-20T02:33:15.010Z,0
2017-08-20T02:33:47.288Z,0
2017-08-20T02:34:19.555Z,0
2017-08-20T02:34:51.810Z,0
2017-08-20T02:35:24.226Z,0
2017-08-20T02:35:56.487Z,0
2017-08-20T02:36:28.745Z,0
2017-08-20T02:37:01.004Z,0
2017-08-20T02:37:33.262Z,0
2017-08-20T02:38:05.657Z,0
2017-08-20T02:38:37.915Z,0
2017-08-20T02:39:10.189Z,0
2017-08-20T02:39:42.519Z,0
2017-08-20T02:40:14.773Z,0
2017-08-20T02:40:47.063Z,0
2017-08-20T02:41:19.324Z,0
2017-08-20T02:41:51.597Z,0
2017-08-20T02:42:23.861Z,0
2017-08-20T02:42:56.133Z,0
2017-08-20T02:43:28.401Z,0
2017-08-20T02:44:00.689Z,0
2017-08-20T02:44:32.948Z,0
2017-08-20T02:45:05.202Z,0
2017-08-20T02:45:37.475Z,0
2017-08-20T02:46:09.743Z,0
2017-08-20T02:46:42.007Z,0
2017-08-20T02:47:14.248Z,0
2017-08-20T02:47:46.530Z,0
2017-08-20T02:48:18.777Z,0
2017-08-20T02:48:51.019Z,0
2017-08-20T02:49:23.289Z,0
2017-08-20T02:49:55.699Z,0
2017-08-20T02:50:27.961Z,0
2017-08-20T02:51:00.245Z,0
2017-08-20T02:51:32.540Z,0
2017-08-20T02:52:04.830Z,0
2017-08-20T02:52:37.087Z,0
2017-08-20T02:53:09.367Z,0
2017-08-20T02:53:41.640Z,0
2017-08-20T02:54:13.908Z,0
2017-08-20T02:54:46.144Z,0
2017-08-20T02:55:18.405Z,0
2017-08-20T02:55:50.671Z,0
2017-08-20T02:56:22.952Z,0
2017-08-20T02:56:55.229Z,0
2017-08-20T02:57:27.522Z,0
2017-08-20T02:57:59.836Z,0
2017-08-20T02:58:32.090Z,0
2017-08-20T02:59:04.340Z,0
2017-08-20T02:59:36.614Z,0
2017-08-20T03:00:08.971Z,0
2017-08-20T03:00:41.222Z,0
2017-08-20T03:01:13.471Z,0
2017-08-20T03:01:45.742Z,0
2017-08-20T03:02:18.002Z,0
2017-08-20T03:02:50.270Z,0
2017-08-20T03:03:22.588Z,0
2017-08-20T03:03:54.885Z,0
2017-08-20T03:04:27.179Z,0
2017-08-20T03:04:59.482Z,0
2017-08-20T03:05:31.782Z,0
2017-08-20T03:06:04.056Z,0
2017-08-20T03:06:36.337Z,0
2017-08-20T03:07:08.655Z,0
2017-08-20T03:07:40.944Z,0
2017-08-20T03:08:13.246Z,0
2017-08-20T03:08:45.544Z,0
2017-08-20T03:09:17.837Z,0
2017-08-20T03:09:50.152Z,0
2017-08-20T03:10:22.452Z,0
2017-08-20T03:10:54.744Z,0
2017-08-20T03:11:27.053Z,0
2017-08-20T03:11:59.375Z,0
2017-08-20T03:12:31.678Z,0
2017-08-20T03:13:03.975Z,0
2017-08-20T03:13:36.260Z,0
2017-08-20T03:14:08.499Z,0
2017-08-20T03:14:40.764Z,0
2017-08-20T03:15:13.006Z,0
2017-08-20T03:15:45.290Z,0
2017-08-20T03:16:17.622Z,0
2017-08-20T03:16:49.886Z,0
2017-08-20T03:17:22.172Z,0
2017-08-20T03:17:54.401Z,0
2017-08-20T03:18:26.704Z,0
2017-08-20T03:18:59.023Z,0
2017-08-20T03:19:31.271Z,0
2017-08-20T03:20:03.528Z,0
2017-08-20T03:20:35.807Z,0
2017-08-20T03:21:08.096Z,0
2017-08-20T03:21:40.366Z,0
2017-08-20T03:22:12.629Z,0
2017-08-20T03:22:44.916Z,0
2017-08-20T03:23:17.183Z,0
2017-08-20T03:23:49.507Z,0
2017-08-20T03:24:21.802Z,0
2017-08-20T03:24:54.101Z,0
2017-08-20T03:25:26.408Z,0
2017-08-20T03:25:58.689Z,0
2017-08-20T03:26:30.977Z,0
2017-08-20T03:27:03.287Z,0
2017-08-20T03:27:35.586Z,0
2017-08-20T03:28:07.881Z,0
2017-08-20T03:28:40.170Z,0
2017-08-20T03:29:12.461Z,0
2017-08-20T03:29:44.756Z,0
2017-08-20T03:30:17.057Z,0
2017-08-20T03:30:49.358Z,0
2017-08-20T03:31:21.644Z,0
2017-08-20T03:31:53.963Z,0
2017-08-20T03:32:26.259Z,0
2017-08-20T03:32:58.549Z,0
2017-08-20T03:33:30.845Z,0
2017-08-20T03:34:03.160Z,0
2017-08-20T03:34:35.471Z,0
2017-08-20T03:35:07.793Z,0
2017-08-20T03:35:40.095Z,0
2017-08-20T03:36:12.383Z,0
2017-08-20T03:36:44.685Z,0
2017-08-20T03:37:16.962Z,0
2017-08-20T03:37:49.233Z,0
2017-08-20T03:38:21.524Z,0
2017-08-20T03:38:53.818Z,0
2017-08-20T03:39:26.131Z,0
2017-08-20T03:39:58.421Z,0
2017-08-20T03:40:30.728Z,0
2017-08-20T03:41:03.031Z,0
2017-08-20T03:41:35.324Z,0
2017-08-20T03:42:07.628Z,0
2017-08-20T03:42:39.914Z,0
2017-08-20T03:43:12.234Z,0
2017-08-20T03:43:44.478Z,0
2017-08-20T03:44:16.746Z,0
2017-08-20T03:44:49.002Z,0
2017-08-20T03:45:21.257Z,0
2017-08-20T03:45:53.617Z,0
2017-08-20T03:46:25.877Z,0
2017-08-20T03:46:58.114Z,0
2017-08-20T03:47:30.370Z,0
2017-08-20T03:48:02.685Z,0
2017-08-20T03:48:34.927Z,0
2017-08-20T03:49:08.189Z,0
2017-08-20T03:49:40.447Z,0
2017-08-20T03:50:12.715Z,0
2017-08-20T03:50:44.976Z,0
2017-08-20T03:51:17.225Z,0
2017-08-20T03:51:49.577Z,0
2017-08-20T03:52:21.841Z,0
2017-08-20T03:52:54.148Z,0
2017-08-20T03:53:26.430Z,0
2017-08-20T03:53:58.722Z,0
2017-08-20T03:54:31.020Z,0
2017-08-20T03:55:03.302Z,0
2017-08-20T03:55:35.595Z,0
2017-08-20T03:56:07.909Z,0
2017-08-20T03:56:40.206Z,0
2017-08-20T03:57:12.512Z,0
2017-08-20T03:57:44.832Z,0
2017-08-20T03:58:17.120Z,4
2017-08-20T03:58:49.429Z,4
2017-08-20T03:59:21.715Z,4
2017-08-20T03:59:54.002Z,4
2017-08-20T04:00:26.282Z,4
2017-08-20T04:00:58.600Z,4
2017-08-20T04:01:30.902Z,0
2017-08-20T04:02:03.195Z,4
2017-08-20T04:02:35.509Z,4
2017-08-20T04:03:07.893Z,4
2017-08-20T04:03:40.161Z,4
2017-08-20T04:04:12.445Z,8
2017-08-20T04:04:44.696Z,8
2017-08-20T04:05:16.958Z,4
2017-08-20T04:05:49.203Z,4
2017-08-20T04:06:21.476Z,8
2017-08-20T04:06:53.770Z,8
2017-08-20T04:07:26.020Z,4
2017-08-20T04:07:58.283Z,8
2017-08-20T04:08:30.541Z,8
2017-08-20T04:09:02.804Z,8
2017-08-20T04:09:35.092Z,12
2017-08-20T04:10:07.351Z,8
2017-08-20T04:10:39.617Z,8
2017-08-20T04:11:11.866Z,12
2017-08-20T04:11:44.117Z,12
2017-08-20T04:12:16.412Z,12
2017-08-20T04:12:48.667Z,12
2017-08-20T04:13:20.934Z,12
2017-08-20T04:13:53.225Z,12
2017-08-20T04:14:25.524Z,16
2017-08-20T04:14:57.808Z,16
2017-08-20T04:15:30.099Z,16
2017-08-20T04:16:02.371Z,16
2017-08-20T04:16:34.640Z,16
2017-08-20T04:17:06.953Z,20
2017-08-20T04:17:39.244Z,20
2017-08-20T04:18:11.562Z,20
2017-08-20T04:18:43.876Z,20
2017-08-20T04:19:16.178Z,24
2017-08-20T04:19:48.489Z,24
2017-08-20T04:20:20.776Z,24
2017-08-20T04:20:53.075Z,28
2017-08-20T04:21:25.367Z,24
2017-08-20T04:21:57.662Z,28
2017-08-20T04:22:29.950Z,32
2017-08-20T04:23:02.234Z,32
2017-08-20T04:23:34.491Z,32
2017-08-20T04:24:06.729Z,36
2017-08-20T04:24:39.101Z,36
2017-08-20T04:25:11.367Z,36
2017-08-20T04:25:43.639Z,40
2017-08-20T04:26:15.871Z,44
2017-08-20T04:26:48.130Z,44
2017-08-20T04:27:20.377Z,48
2017-08-20T04:27:52.624Z,52
2017-08-20T04:28:24.908Z,52
2017-08-20T04:28:57.196Z,60
2017-08-20T04:29:29.470Z,64
2017-08-20T04:30:01.727Z,68
2017-08-20T04:30:34.000Z,76
2017-08-20T04:31:06.352Z,80
2017-08-20T04:31:38.600Z,88
2017-08-20T04:32:10.862Z,92
2017-08-20T04:32:43.140Z,100
2017-08-20T04:33:15.409Z,108
2017-08-20T04:33:47.684Z,116
2017-08-20T04:34:20.062Z,120
2017-08-20T04:34:52.298Z,124
2017-08-20T04:35:24.550Z,132
2017-08-20T04:35:56.973Z,136
2017-08-20T04:36:29.234Z,140
2017-08-20T04:37:01.510Z,144
2017-08-20T04:37:33.777Z,148
2017-08-20T04:38:06.039Z,152
2017-08-20T04:38:38.386Z,156
2017-08-20T04:39:10.652Z,160
2017-08-20T04:39:42.908Z,164
2017-08-20T04:40:15.174Z,168
2017-08-20T04:40:47.452Z,172
2017-08-20T04:41:19.887Z,172
2017-08-20T04:41:52.130Z,180
2017-08-20T04:42:24.389Z,180
2017-08-20T04:42:56.664Z,188
2017-08-20T04:43:29.037Z,192
2017-08-20T04:44:01.288Z,196
2017-08-20T04:44:33.555Z,200
2017-08-20T04:45:05.811Z,204
2017-08-20T04:45:38.059Z,204
2017-08-20T04:46:10.314Z,208
2017-08-20T04:46:42.554Z,212
2017-08-20T04:47:14.830Z,216
2017-08-20T04:47:47.138Z,216
2017-08-20T04:48:19.381Z,224
2017-08-20T04:48:51.636Z,232
2017-08-20T04:49:23.904Z,236
2017-08-20T04:49:56.177Z,240
2017-08-20T04:50:28.437Z,248
2017-08-20T04:51:00.706Z,252
2017-08-20T04:51:32.980Z,260
2017-08-20T04:52:05.244Z,272
2017-08-20T04:52:37.556Z,280
2017-08-20T04:53:09.894Z,288
2017-08-20T04:53:42.162Z,296
2017-08-20T04:54:14.428Z,300
2017-08-20T04:54:46.712Z,308
2017-08-20T04:55:19.038Z,308
2017-08-20T04:55:51.302Z,312
2017-08-20T04:56:23.563Z,316
2017-08-20T04:56:55.842Z,324
2017-08-20T04:57:28.130Z,332
2017-08-20T04:58:00.473Z,336
2017-08-20T04:58:32.737Z,348
2017-08-20T04:59:05.000Z,352
2017-08-20T04:59:37.265Z,356
2017-08-20T05:00:09.506Z,364
2017-08-20T05:00:41.775Z,368
2017-08-20T05:01:14.042Z,376
2017-08-20T05:01:46.317Z,384
2017-08-20T05:02:18.612Z,392
2017-08-20T05:02:50.869Z,404
2017-08-20T05:03:23.115Z,416
2017-08-20T05:03:55.373Z,424
2017-08-20T05:04:27.638Z,436
2017-08-20T05:04:59.906Z,440
2017-08-20T05:05:32.193Z,444
2017-08-20T05:06:04.460Z,452
2017-08-20T05:06:36.712Z,460
2017-08-20T05:07:08.969Z,468
2017-08-20T05:07:41.850Z,480
2017-08-20T05:08:14.142Z,480
2017-08-20T05:08:46.404Z,484
2017-08-20T05:09:18.671Z,492
2017-08-20T05:09:50.915Z,500
2017-08-20T05:10:23.206Z,512
2017-08-20T05:10:55.513Z,516
2017-08-20T05:11:27.800Z,524
2017-08-20T05:12:00.037Z,528
2017-08-20T05:12:32.336Z,532
2017-08-20T05:13:04.612Z,536
2017-08-20T05:13:36.874Z,540
2017-08-20T05:14:09.139Z,540
2017-08-20T05:14:41.395Z,544
2017-08-20T05:15:13.666Z,552
2017-08-20T05:15:45.948Z,556
2017-08-20T05:16:18.211Z,560
2017-08-20T05:16:50.466Z,568
2017-08-20T05:17:22.769Z,596
2017-08-20T05:17:55.121Z,656
2017-08-20T05:18:27.385Z,584
2017-08-20T05:18:59.655Z,584
2017-08-20T05:19:31.934Z,588
2017-08-20T05:20:04.177Z,600
2017-08-20T05:20:36.449Z,608
2017-08-20T05:21:08.826Z,612
2017-08-20T05:21:41.087Z,628
2017-08-20T05:22:13.348Z,632
2017-08-20T05:22:45.643Z,640
2017-08-20T05:23:17.917Z,648
2017-08-20T05:23:50.202Z,652
2017-08-20T05:24:22.460Z,664
2017-08-20T05:24:54.721Z,672
2017-08-20T05:25:26.979Z,684
2017-08-20T05:25:59.237Z,696
2017-08-20T05:26:31.520Z,716
2017-08-20T05:27:03.884Z,732
2017-08-20T05:27:36.162Z,756
2017-08-20T05:28:08.400Z,792
2017-08-20T05:28:40.674Z,816
2017-08-20T05:29:12.948Z,928
2017-08-20T05:29:45.789Z,792
2017-08-20T05:30:18.106Z,848
2017-08-20T05:30:50.380Z,816
2017-08-20T05:31:22.684Z,880
2017-08-20T05:31:54.962Z,1308
2017-08-20T05:32:27.263Z,1156
2017-08-20T05:32:59.520Z,888
2017-08-20T05:33:31.779Z,904
2017-08-20T05:34:04.058Z,816
2017-08-20T05:34:36.332Z,896
2017-08-20T05:35:08.582Z,1020
2017-08-20T05:35:40.852Z,976
2017-08-20T05:36:13.119Z,992
2017-08-20T05:36:45.369Z,1052
2017-08-20T05:37:17.642Z,1064
2017-08-20T05:37:49.959Z,1136
2017-08-20T05:38:22.228Z,1232
2017-08-20T05:38:54.499Z,1364
2017-08-20T05:39:26.758Z,1520
2017-08-20T05:39:59.025Z,1624
2017-08-20T05:40:31.282Z,1740
2017-08-20T05:41:03.649Z,1836
2017-08-20T05:41:35.908Z,1784
2017-08-20T05:42:08.168Z,1504
2017-08-20T05:42:40.447Z,1272
2017-08-20T05:43:12.736Z,1148
2017-08-20T05:43:45.032Z,1108
2017-08-20T05:44:17.334Z,1080
2017-08-20T05:44:49.627Z,1060
2017-08-20T05:45:21.925Z,1104
2017-08-20T05:45:54.214Z,1280
2017-08-20T05:46:26.514Z,1484
2017-08-20T05:46:58.817Z,1764
2017-08-20T05:47:31.123Z,1940
2017-08-20T05:48:03.432Z,2004
2017-08-20T05:48:35.735Z,2108
2017-08-20T05:49:08.023Z,2160
2017-08-20T05:49:40.304Z,2224
2017-08-20T05:50:12.618Z,2264
2017-08-20T05:50:44.922Z,2288
2017-08-20T05:51:17.219Z,2300
2017-08-20T05:51:49.526Z,2316
2017-08-20T05:52:21.822Z,2320
2017-08-20T05:52:54.140Z,2328
2017-08-20T05:53:26.439Z,2344
2017-08-20T05:53:58.754Z,2368
2017-08-20T05:54:31.027Z,2400
2017-08-20T05:55:03.337Z,2068
2017-08-20T05:55:35.617Z,2484
2017-08-20T05:56:07.958Z,2356
2017-08-20T05:56:40.264Z,1416
2017-08-20T05:57:13.230Z,1820
2017-08-20T05:57:45.818Z,1916
2017-08-20T05:58:18.108Z,1560
2017-08-20T05:58:50.404Z,1332
2017-08-20T05:59:22.692Z,1636
2017-08-20T05:59:54.986Z,2584
2017-08-20T06:00:27.279Z,2576
2017-08-20T06:00:59.565Z,2584
2017-08-20T06:01:31.852Z,2600
2017-08-20T06:02:04.148Z,2612
2017-08-20T06:02:36.457Z,2628
2017-08-20T06:03:08.763Z,2640
2017-08-20T06:03:41.045Z,2660
2017-08-20T06:04:13.366Z,2660
2017-08-20T06:04:45.655Z,2696
2017-08-20T06:05:17.949Z,2724
2017-08-20T06:05:50.242Z,2740
2017-08-20T06:06:22.548Z,2732
2017-08-20T06:06:54.834Z,2768
2017-08-20T06:07:27.138Z,2780
2017-08-20T06:07:59.441Z,2788
2017-08-20T06:08:31.744Z,2780
2017-08-20T06:09:04.029Z,2812
2017-08-20T06:09:36.342Z,2840
2017-08-20T06:10:08.635Z,2828
2017-08-20T06:10:40.937Z,2820
2017-08-20T06:11:13.224Z,2832
2017-08-20T06:11:45.526Z,2900
2017-08-20T06:12:17.812Z,2932
2017-08-20T06:12:50.099Z,2928
2017-08-20T06:13:22.386Z,2948
2017-08-20T06:13:54.670Z,2952
2017-08-20T06:14:26.960Z,2952
2017-08-20T06:14:59.277Z,2948
2017-08-20T06:15:31.587Z,2968
2017-08-20T06:16:03.882Z,2964
2017-08-20T06:16:36.178Z,3020
2017-08-20T06:17:08.480Z,3040
2017-08-20T06:17:40.766Z,3076
2017-08-20T06:18:13.079Z,3124
2017-08-20T06:18:45.376Z,3128
2017-08-20T06:19:17.653Z,3120
2017-08-20T06:19:49.945Z,3152
2017-08-20T06:20:22.223Z,3164
2017-08-20T06:20:54.510Z,3148
2017-08-20T06:21:26.816Z,3116
2017-08-20T06:21:59.104Z,3024
2017-08-20T06:22:31.403Z,3092
2017-08-20T06:23:03.707Z,3092
2017-08-20T06:23:36.012Z,3044
2017-08-20T06:24:08.315Z,3116
2017-08-20T06:24:40.604Z,3168
2017-08-20T06:25:12.910Z,3228
2017-08-20T06:25:45.209Z,3224
2017-08-20T06:26:17.532Z,3216
2017-08-20T06:26:49.845Z,3212
2017-08-20T06:27:22.143Z,3188
2017-08-20T06:27:54.436Z,3280
2017-08-20T06:28:26.723Z,3348
2017-08-20T06:28:59.018Z,3400
2017-08-20T06:29:31.319Z,3416
2017-08-20T06:30:03.602Z,3432
2017-08-20T06:30:35.907Z,3408
2017-08-20T06:31:08.196Z,3160
2017-08-20T06:31:40.480Z,3372
2017-08-20T06:32:12.807Z,3400
2017-08-20T06:32:45.105Z,3480
2017-08-20T06:33:17.388Z,3528
2017-08-20T06:33:49.666Z,3564
2017-08-20T06:34:21.948Z,3588
2017-08-20T06:34:54.341Z,3576
2017-08-20T06:35:26.648Z,3596
2017-08-20T06:35:58.921Z,3644
2017-08-20T06:36:31.210Z,3616
2017-08-20T06:37:03.459Z,3608
2017-08-20T06:37:35.741Z,3580
2017-08-20T06:38:08.018Z,3540
2017-08-20T06:38:40.300Z,3544
2017-08-20T06:39:12.622Z,3672
2017-08-20T06:39:44.891Z,3736
2017-08-20T06:40:17.198Z,3772
2017-08-20T06:40:49.471Z,3796
2017-08-20T06:41:21.765Z,3772
2017-08-20T06:41:54.036Z,3808
2017-08-20T06:42:26.288Z,3772
2017-08-20T06:42:58.580Z,3808
2017-08-20T06:43:30.896Z,3840
2017-08-20T06:44:03.186Z,3876
2017-08-20T06:44:35.478Z,3872
2017-08-20T06:45:07.790Z,3884
2017-08-20T06:45:40.108Z,3864
2017-08-20T06:46:12.391Z,3792
2017-08-20T06:46:44.677Z,3724
2017-08-20T06:47:16.992Z,3764
2017-08-20T06:47:49.281Z,3844
2017-08-20T06:48:21.561Z,3824
2017-08-20T06:48:53.863Z,3796
2017-08-20T06:49:26.161Z,3796
2017-08-20T06:49:58.459Z,3788
2017-08-20T06:50:30.757Z,3780
2017-08-20T06:51:03.062Z,3780
2017-08-20T06:51:35.385Z,3756
2017-08-20T06:52:07.677Z,3788
2017-08-20T06:52:39.969Z,3764
2017-08-20T06:53:12.268Z,3828
2017-08-20T06:53:44.572Z,3860
2017-08-20T06:54:16.850Z,3872
2017-08-20T06:54:49.133Z,3848
2017-08-20T06:55:21.417Z,3816
2017-08-20T06:55:53.722Z,3852
2017-08-20T06:56:25.990Z,3912
2017-08-20T06:56:58.280Z,3912
2017-08-20T06:57:30.568Z,3844
2017-08-20T06:58:02.860Z,1836
2017-08-20T06:58:35.177Z,3924
2017-08-20T06:59:07.461Z,3852
2017-08-20T06:59:39.751Z,3948
2017-08-20T07:00:12.041Z,3968
2017-08-20T07:00:44.340Z,3880
2017-08-20T07:01:16.627Z,3908
2017-08-20T07:01:48.920Z,3852
2017-08-20T07:02:21.206Z,2052
2017-08-20T07:02:53.480Z,3868
2017-08-20T07:03:25.752Z,3888
2017-08-20T07:03:58.040Z,3892
2017-08-20T07:04:30.309Z,3912
2017-08-20T07:05:02.582Z,3868
2017-08-20T07:05:34.833Z,3888
2017-08-20T07:06:07.095Z,3924
2017-08-20T07:06:39.368Z,3960
2017-08-20T07:07:11.721Z,3884
2017-08-20T07:07:43.995Z,3912
2017-08-20T07:08:16.263Z,3860
2017-08-20T07:08:48.514Z,3892
2017-08-20T07:09:20.794Z,3948
2017-08-20T07:09:53.089Z,3968
2017-08-20T07:10:25.351Z,3984
2017-08-20T07:10:57.634Z,4000
2017-08-20T07:11:29.889Z,3980
2017-08-20T07:12:02.205Z,3952
2017-08-20T07:12:34.465Z,3928
2017-08-20T07:13:06.729Z,3852
2017-08-20T07:13:39.024Z,2384
2017-08-20T07:14:11.280Z,2152
2017-08-20T07:14:43.518Z,3588
2017-08-20T07:15:15.829Z,1876
2017-08-20T07:15:48.070Z,3420
2017-08-20T07:16:20.326Z,3860
2017-08-20T07:16:52.591Z,3828
2017-08-20T07:17:24.855Z,3780
2017-08-20T07:17:57.125Z,3836
2017-08-20T07:18:29.386Z,3824
2017-08-20T07:19:01.646Z,3872
2017-08-20T07:19:33.984Z,3836
2017-08-20T07:20:06.250Z,3808
2017-08-20T07:20:38.518Z,3808
2017-08-20T07:21:10.970Z,3784
2017-08-20T07:21:43.326Z,3748
2017-08-20T07:22:15.578Z,3484
2017-08-20T07:22:47.831Z,3696
2017-08-20T07:23:20.098Z,3688
2017-08-20T07:23:52.388Z,3708
2017-08-20T07:24:24.672Z,3752
2017-08-20T07:24:56.974Z,3732
2017-08-20T07:25:29.282Z,3756
2017-08-20T07:26:01.585Z,3720
2017-08-20T07:26:33.868Z,3704
2017-08-20T07:27:06.170Z,3680
2017-08-20T07:27:38.474Z,3612
2017-08-20T07:28:10.766Z,3588
2017-08-20T07:28:43.075Z,3580
2017-08-20T07:29:15.395Z,3564
2017-08-20T07:29:47.699Z,3600
2017-08-20T07:30:19.987Z,3608
2017-08-20T07:30:52.288Z,3612
2017-08-20T07:31:24.618Z,3588
2017-08-20T07:31:56.928Z,3568
2017-08-20T07:32:29.238Z,3552
2017-08-20T07:33:01.537Z,3576
2017-08-20T07:33:33.829Z,3580
2017-08-20T07:34:06.116Z,3568
2017-08-20T07:34:38.400Z,3512
2017-08-20T07:35:10.713Z,3492
2017-08-20T07:35:43.016Z,3480
2017-08-20T07:36:15.322Z,3484
2017-08-20T07:36:47.617Z,3480
2017-08-20T07:37:19.935Z,3488
2017-08-20T07:37:52.230Z,3512
2017-08-20T07:38:24.530Z,3512